TimeCST,TemperatureF,Dew PointF,Humidity,Sea Level PressureIn,VisibilityMPH,Wind Direction,Wind SpeedMPH,Gust SpeedMPH,PrecipitationIn,Events,Conditions,WindDirDegrees,DateUTC
12:15 AM,46.4,46.4,100,30.11,1.8,ENE,11.5,-,0.03,Rain,Rain,70,2013-01-10 06:15:00
2:15 AM,46.4,46.4,100,30.05,2.5,ENE,10.4,-,N/A,,Overcast,70,2013-01-10 08:15:00
2:35 AM,46.4,46.4,100,30.04,1.2,ENE,8.1,-,0.06,Rain,Rain,60,2013-01-10 08:35:00
2:55 AM,46.4,46.4,100,30.02,1.5,NE,8.1,-,0.07,Rain,Light Rain,50,2013-01-10 08:55:00
3:15 AM,46.4,46.4,100,30.02,0.8,ENE,8.1,-,N/A,,Overcast,60,2013-01-10 09:15:00
3:35 AM,46.4,46.4,100,29.99,0.5,ENE,6.9,-,N/A,Fog,Fog,60,2013-01-10 09:35:00
3:55 AM,46.4,46.4,100,29.98,0.2,ENE,9.2,-,N/A,Fog,Fog,60,2013-01-10 09:55:00
4:15 AM,48.2,48.2,100,29.97,0.5,East,8.1,-,N/A,Rain,Light Rain,80,2013-01-10 10:15:00
4:35 AM,48.2,48.2,100,29.96,1.0,East,10.4,-,0.02,Rain,Light Rain,90,2013-01-10 10:35:00
4:55 AM,48.2,48.2,100,29.96,2.5,East,11.5,-,0.05,Rain,Light Rain,100,2013-01-10 10:55:00
5:15 AM,48.2,48.2,100,29.95,3.0,ESE,8.1,-,N/A,Rain,Light Rain,110,2013-01-10 11:15:00
5:35 AM,48.2,48.2,100,29.96,2.5,East,8.1,-,N/A,,Overcast,100,2013-01-10 11:35:00
5:55 AM,48.2,48.2,100,29.96,2.5,East,5.8,-,N/A,Rain,Light Rain,90,2013-01-10 11:55:00
6:15 AM,48.2,48.2,100,29.95,2.0,East,5.8,-,N/A,Rain,Light Rain,90,2013-01-10 12:15:00
6:35 AM,48.2,48.2,100,29.95,1.2,Calm,Calm,-,N/A,Rain,Light Rain,0,2013-01-10 12:35:00
6:55 AM,48.2,48.2,100,29.95,1.2,Calm,Calm,-,N/A,,Overcast,0,2013-01-10 12:55:00
7:15 AM,48.2,48.2,100,29.96,0.8,Calm,Calm,-,N/A,,Overcast,0,2013-01-10 13:15:00
7:55 AM,48.2,48.2,100,29.94,0.5,NNE,4.6,-,N/A,Rain,Light Rain,30,2013-01-10 13:55:00
8:15 AM,48.2,48.2,100,29.94,0.8,NE,4.6,-,N/A,Rain,Light Rain,40,2013-01-10 14:15:00
8:35 AM,48.2,48.2,100,29.93,1.0,ENE,8.1,-,N/A,Rain,Light Rain,60,2013-01-10 14:35:00
8:55 AM,48.2,48.2,100,29.92,0.8,ENE,8.1,-,N/A,,Mostly Cloudy,70,2013-01-10 14:55:00
9:15 AM,48.2,48.2,100,29.93,0.8,East,5.8,-,N/A,Rain,Light Rain,90,2013-01-10 15:15:00
9:35 AM,48.2,48.2,100,29.91,0.8,ENE,8.1,-,N/A,Rain,Light Rain,60,2013-01-10 15:35:00
9:55 AM,50.0,50.0,100,29.91,1.8,ENE,5.8,-,N/A,,Overcast,70,2013-01-10 15:55:00
10:15 AM,50.0,50.0,100,29.91,1.2,East,8.1,-,N/A,,Overcast,90,2013-01-10 16:15:00
10:35 AM,50.0,50.0,100,29.91,1.0,East,5.8,-,N/A,,Mostly Cloudy,80,2013-01-10 16:35:00
10:55 AM,50.0,50.0,100,29.91,1.5,East,5.8,-,N/A,,Scattered Clouds,80,2013-01-10 16:55:00
11:15 AM,50.0,50.0,100,29.90,2.0,North,-9999.0,-,N/A,,Scattered Clouds,0,2013-01-10 17:15:00
11:35 AM,50.0,50.0,100,29.89,1.0,North,-9999.0,-,N/A,Rain,Light Rain,0,2013-01-10 17:35:00
11:55 AM,51.8,51.8,100,29.88,1.2,North,-9999.0,-,N/A,,Overcast,0,2013-01-10 17:55:00
12:15 PM,51.8,51.8,100,29.85,1.5,North,-9999.0,-,N/A,,Overcast,0,2013-01-10 18:15:00
12:35 PM,53.6,53.6,100,29.84,3.0,North,-9999.0,-,N/A,,Overcast,0,2013-01-10 18:35:00
12:55 PM,53.6,53.6,100,29.84,3.0,North,-9999.0,-,N/A,,Overcast,0,2013-01-10 18:55:00
1:15 PM,53.6,53.6,100,29.84,6.0,North,-9999.0,-,N/A,,Overcast,0,2013-01-10 19:15:00
1:35 PM,53.6,53.6,100,29.82,6.0,North,-9999.0,-,N/A,,Mostly Cloudy,0,2013-01-10 19:35:00
1:55 PM,53.6,53.6,100,29.82,10.0,North,-9999.0,-,N/A,,Mostly Cloudy,0,2013-01-10 19:55:00
2:35 PM,55.4,53.6,94,29.81,10.0,North,-9999.0,-,N/A,,Mostly Cloudy,0,2013-01-10 20:35:00
2:55 PM,55.4,53.6,94,29.81,10.0,SW,8.1,-,N/A,,Mostly Cloudy,220,2013-01-10 20:55:00
3:15 PM,55.4,53.6,94,29.81,10.0,SW,8.1,-,N/A,,Overcast,230,2013-01-10 21:15:00
3:35 PM,55.4,53.6,94,29.82,10.0,SW,9.2,-,N/A,,Overcast,230,2013-01-10 21:35:00
3:55 PM,53.6,51.8,94,29.82,10.0,SSW,12.7,18.4,N/A,,Overcast,200,2013-01-10 21:55:00
4:15 PM,53.6,51.8,94,29.83,10.0,SSW,10.4,-,N/A,,Overcast,210,2013-01-10 22:15:00
4:35 PM,53.6,51.8,94,29.84,5.0,SSW,11.5,-,N/A,,Overcast,200,2013-01-10 22:35:00
4:55 PM,53.6,51.8,94,29.85,8.0,North,-9999.0,-,N/A,,Overcast,0,2013-01-10 22:55:00
5:15 PM,53.6,51.8,94,29.85,7.0,SSW,9.2,-,N/A,,Overcast,200,2013-01-10 23:15:00
5:35 PM,51.8,51.8,100,29.84,8.0,SSW,8.1,-,N/A,,Overcast,200,2013-01-10 23:35:00
5:55 PM,50.0,50.0,100,29.84,8.0,SSW,10.4,-,N/A,,Overcast,200,2013-01-10 23:55:00
6:15 PM,51.8,51.8,100,29.85,10.0,SW,11.5,18.4,N/A,,Overcast,230,2013-01-11 00:15:00
6:35 PM,50.0,50.0,100,29.86,9.0,WSW,9.2,-,N/A,,Overcast,250,2013-01-11 00:35:00
6:55 PM,50.0,50.0,100,29.85,10.0,West,10.4,-,N/A,,Overcast,260,2013-01-11 00:55:00
7:15 PM,50.0,50.0,100,29.84,10.0,West,9.2,-,N/A,,Overcast,260,2013-01-11 01:15:00
7:35 PM,48.2,48.2,100,29.84,10.0,WSW,5.8,-,N/A,,Mostly Cloudy,240,2013-01-11 01:35:00
7:55 PM,46.4,46.4,100,29.84,10.0,South,6.9,-,N/A,,Partly Cloudy,170,2013-01-11 01:55:00
8:15 PM,46.4,46.4,100,29.84,9.0,SSE,8.1,-,N/A,,Scattered Clouds,160,2013-01-11 02:15:00
8:35 PM,48.2,48.2,100,29.85,10.0,South,12.7,19.6,N/A,,Overcast,190,2013-01-11 02:35:00
8:55 PM,48.2,48.2,100,29.86,10.0,SSW,12.7,24.2,N/A,,Overcast,210,2013-01-11 02:55:00
9:15 PM,48.2,48.2,100,29.85,10.0,SSW,13.8,20.7,N/A,,Overcast,210,2013-01-11 03:15:00
9:35 PM,48.2,48.2,100,29.85,10.0,SSW,13.8,-,N/A,,Overcast,200,2013-01-11 03:35:00
9:55 PM,48.2,48.2,100,29.85,10.0,South,12.7,-,N/A,,Overcast,190,2013-01-11 03:55:00
10:15 PM,48.2,48.2,100,29.84,10.0,SSW,11.5,-,N/A,,Scattered Clouds,200,2013-01-11 04:15:00
10:35 PM,46.4,46.4,100,29.85,10.0,SSW,11.5,-,N/A,,Clear,200,2013-01-11 04:35:00
11:35 PM,46.4,46.4,100,29.84,10.0,South,11.5,-,N/A,,Clear,180,2013-01-11 05:35:00
11:55 PM,44.6,44.6,100,29.85,10.0,SSW,11.5,-,N/A,,Clear,200,2013-01-11 05:55:00